Manila Express — VRCX7 — position and weather

sailwx.info

Track history (hours):
 
Tides and Currents Weather Stations Pressure Air Temp Water Temp Dewpoint Dewpoint Depression Visibility Wind Speed Wind Dir Waves Ship Positions

Manila Express

Last reported at 2014-Nov-03 02:33 UTC. Time now 2014-Nov-26 20:19 UTC.
Position N 34°56' E 023°21'.
Warning: this ship's position is 23 days out of date.

Length 260 m; draft 11.1 m.

Type: Ship (hazmat cat A). MMSI: 477830800.

Date/timePositionNaut miles runAvg speedWind from/ knotsBaromVisibWave heightAir tempDewpointWater temp
2014-Nov-03 02:33N 34°56' E 023°21'80016.3
2014-Nov-01 01:33N 42°58' E 009°40'1616.7
2014-Nov-01 00:34N 43°13' E 009°33'1716.9
2014-Oct-31 23:34N 43°29' E 009°25'1717.1
2014-Oct-31 22:34N 43°45' E 009°17'1716.9
2014-Oct-31 21:33N 44°01' E 009°09'1716.9
2014-Oct-31 20:33N 44°16' E 008°60'9 8.6
2014-Oct-31 19:32N 44°24' E 008°54'0 0.0
2014-Oct-31 18:32N 44°24' E 008°54'0 0.0
2014-Oct-31 17:29N 44°24' E 008°54'0 0.0
2014-Oct-31 16:32N 44°24' E 008°54'0 0.0
2014-Oct-31 15:32N 44°24' E 008°54'0 0.0
2014-Oct-31 14:32N 44°24' E 008°54'0 0.0
2014-Oct-31 13:31N 44°24' E 008°54'0 0.0
2014-Oct-31 12:31N 44°24' E 008°54'0 0.0
2014-Oct-31 11:28N 44°24' E 008°54'0 0.0
2014-Oct-31 10:31N 44°24' E 008°54'0 0.0
2014-Oct-31 09:31N 44°24' E 008°54'0 0.0
2014-Oct-31 08:31N 44°24' E 008°54'0 0.0
2014-Oct-31 07:31N 44°24' E 008°54'0 0.3
2014-Oct-31 06:34N 44°24' E 008°54'4 3.8
2014-Oct-31 05:34N 44°22' E 008°58'10 9.9
2014-Oct-31 04:33N 44°12' E 008°55'1 0.5
2014-Oct-31 03:33N 44°12' E 008°56'1 0.6
2014-Oct-31 02:33N 44°11' E 008°57'1 1.5
2014-Oct-31 01:34N 44°10' E 008°55'1 0.6
2014-Oct-31 00:33N 44°11' E 008°56'1 0.6
2014-Oct-30 23:34N 44°11' E 008°56'0 0.5
2014-Oct-30 22:34N 44°11' E 008°57'0 0.3
2014-Oct-30 21:34N 44°11' E 008°57'0 0.2
2014-Oct-30 20:31N 44°12' E 008°57'1 1.5
2014-Oct-30 19:34N 44°10' E 008°57'1 0.7
2014-Oct-30 18:34N 44°10' E 008°56'0 0.4
2014-Oct-30 17:33N 44°10' E 008°56'0 0.3
2014-Oct-30 16:33N 44°11' E 008°56'0 0.3
2014-Oct-30 15:34N 44°11' E 008°56'0 0.1
2014-Oct-30 14:33N 44°11' E 008°57'0 0.4
2014-Oct-30 13:34N 44°10' E 008°57'0 0.2
2014-Oct-30 12:33N 44°11' E 008°57'1 0.5
2014-Oct-30 11:33N 44°11' E 008°57'0 0.1
2014-Oct-30 10:34N 44°11' E 008°57'7 6.6
2014-Oct-30 09:34N 44°10' E 008°48'1110.9
2014-Oct-30 08:33N 44°04' E 008°35'1211.9
2014-Oct-30 07:31N 43°56' E 008°22'3612.2
2014-Oct-30 04:31N 43°33' E 007°44'1212.3
2014-Oct-30 03:31N 43°25' E 007°31'1212.2
2014-Oct-30 02:31N 43°17' E 007°18'1212.3
2014-Oct-30 01:33N 43°09' E 007°06'1211.9
2014-Oct-30 00:34N 43°01' E 006°54'1111.5
2014-Oct-29 23:34N 42°54' E 006°42'1211.7
2014-Oct-29 22:34N 42°46' E 006°30'1212.0
2014-Oct-29 21:33N 42°38' E 006°18'1212.3
2014-Oct-29 20:33N 42°29' E 006°06'1312.2
2014-Oct-29 19:29N 42°21' E 005°52'1413.2
2014-Oct-29 18:25N 42°12' E 005°37'1512.9
2014-Oct-29 17:14N 42°02' E 005°22'811.8
2014-Oct-29 16:33N 41°57' E 005°14'1211.9
2014-Oct-29 15:31N 41°49' E 005°01'1715.5
2014-Oct-29 14:26N 41°38' E 004°44'2023.0
2014-Oct-29 13:33N 41°24' E 004°25'2221.9
2014-Oct-29 12:33N 41°10' E 004°02'1916.2
2014-Oct-29 11:24N 40°58' E 003°43'1213.9
2014-Oct-29 10:32N 40°50' E 003°31'1414.3
2014-Oct-29 09:31N 40°40' E 003°18'1414.1
2014-Oct-29 08:33N 40°31' E 003°03'1414.0
2014-Oct-29 07:33N 40°22' E 002°49'1414.0
2014-Oct-29 06:33N 40°13' E 002°35'1413.9
2014-Oct-29 05:33N 40°04' E 002°22'1413.8
2014-Oct-29 04:33N 39°55' E 002°08'1414.0
2014-Oct-29 03:33N 39°46' E 001°54'1614.1
2014-Oct-29 02:24N 39°35' E 001°39'1213.9
2014-Oct-29 01:33N 39°27' E 001°27'13713.7
2014-Oct-28 15:33N 37°35' W 000°14'1413.6
2014-Oct-28 14:33N 37°24' W 000°23'2713.5
2014-Oct-28 12:32N 37°04' W 000°47'22813.4
2014-Oct-27 19:33N 35°59' W 005°19'3514.7
2014-Oct-27 17:12N 35°54' W 006°01'913.8
2014-Oct-27 16:33N 35°54' W 006°12'1513.7
2014-Oct-27 15:29N 35°53' W 006°30'1814.5
2014-Oct-27 14:17N 35°58' W 006°51'1620.1
2014-Oct-27 13:28N 36°03' W 007°10'1415.8
2014-Oct-27 12:33N 36°07' W 007°27'2014.7
2014-Oct-27 11:12N 36°13' W 007°51'813.1
2014-Oct-27 10:33N 36°15' W 008°01'1514.1
2014-Oct-27 09:31N 36°19' W 008°18'1314.0
2014-Oct-27 08:34N 36°23' W 008°34'1414.0
2014-Oct-27 07:34N 36°28' W 008°51'1413.8
2014-Oct-27 06:33N 36°32' W 009°07'1413.5
2014-Oct-27 05:33N 36°38' W 009°22'1414.0
2014-Oct-27 04:33N 36°48' W 009°34'1414.1
2014-Oct-27 03:33N 37°02' W 009°38'1414.2
2014-Oct-27 02:33N 37°16' W 009°41'1414.2
2014-Oct-27 01:33N 37°30' W 009°45'1413.9
2014-Oct-27 00:33N 37°43' W 009°49'1413.9
2014-Oct-26 23:33N 37°57' W 009°53'1414.0
2014-Oct-26 22:33N 38°11' W 009°56'1414.1
2014-Oct-26 21:33N 38°24' W 010°02'1514.0
2014-Oct-26 20:31N 38°38' W 010°05'  
2014-Oct-24 09:33N 50°00' W 002°43'  
Track history (hours):
 
Tides and Currents Weather Stations Pressure Air Temp Water Temp Dewpoint Dewpoint Depression Visibility Wind Speed Wind Dir Waves Ship Positions

Manila Express

Last reported at 2014-Nov-03 02:33 UTC. Time now 2014-Nov-26 20:19 UTC.
Position N 34°56' E 023°21'.
Warning: this ship's position is 23 days out of date.

Length 260 m; draft 11.1 m.

Type: Ship (hazmat cat A). MMSI: 477830800.

Date/timePositionNaut miles runAvg speedWind from/ knotsBaromVisibWave heightAir tempDewpointWater temp
2014-Nov-03 02:33N 34°56' E 023°21'80016.3
2014-Nov-01 01:33N 42°58' E 009°40'1616.7
2014-Nov-01 00:34N 43°13' E 009°33'1716.9
2014-Oct-31 23:34N 43°29' E 009°25'1717.1
2014-Oct-31 22:34N 43°45' E 009°17'1716.9
2014-Oct-31 21:33N 44°01' E 009°09'1716.9
2014-Oct-31 20:33N 44°16' E 008°60'9 8.6
2014-Oct-31 19:32N 44°24' E 008°54'0 0.0
2014-Oct-31 18:32N 44°24' E 008°54'0 0.0
2014-Oct-31 17:29N 44°24' E 008°54'0 0.0
2014-Oct-31 16:32N 44°24' E 008°54'0 0.0
2014-Oct-31 15:32N 44°24' E 008°54'0 0.0
2014-Oct-31 14:32N 44°24' E 008°54'0 0.0
2014-Oct-31 13:31N 44°24' E 008°54'0 0.0
2014-Oct-31 12:31N 44°24' E 008°54'0 0.0
2014-Oct-31 11:28N 44°24' E 008°54'0 0.0
2014-Oct-31 10:31N 44°24' E 008°54'0 0.0
2014-Oct-31 09:31N 44°24' E 008°54'0 0.0
2014-Oct-31 08:31N 44°24' E 008°54'0 0.0
2014-Oct-31 07:31N 44°24' E 008°54'0 0.3
2014-Oct-31 06:34N 44°24' E 008°54'4 3.8
2014-Oct-31 05:34N 44°22' E 008°58'10 9.9
2014-Oct-31 04:33N 44°12' E 008°55'1 0.5
2014-Oct-31 03:33N 44°12' E 008°56'1 0.6
2014-Oct-31 02:33N 44°11' E 008°57'1 1.5
2014-Oct-31 01:34N 44°10' E 008°55'1 0.6
2014-Oct-31 00:33N 44°11' E 008°56'1 0.6
2014-Oct-30 23:34N 44°11' E 008°56'0 0.5
2014-Oct-30 22:34N 44°11' E 008°57'0 0.3
2014-Oct-30 21:34N 44°11' E 008°57'0 0.2
2014-Oct-30 20:31N 44°12' E 008°57'1 1.5
2014-Oct-30 19:34N 44°10' E 008°57'1 0.7
2014-Oct-30 18:34N 44°10' E 008°56'0 0.4
2014-Oct-30 17:33N 44°10' E 008°56'0 0.3
2014-Oct-30 16:33N 44°11' E 008°56'0 0.3
2014-Oct-30 15:34N 44°11' E 008°56'0 0.1
2014-Oct-30 14:33N 44°11' E 008°57'0 0.4
2014-Oct-30 13:34N 44°10' E 008°57'0 0.2
2014-Oct-30 12:33N 44°11' E 008°57'1 0.5
2014-Oct-30 11:33N 44°11' E 008°57'0 0.1
2014-Oct-30 10:34N 44°11' E 008°57'7 6.6
2014-Oct-30 09:34N 44°10' E 008°48'1110.9
2014-Oct-30 08:33N 44°04' E 008°35'1211.9
2014-Oct-30 07:31N 43°56' E 008°22'3612.2
2014-Oct-30 04:31N 43°33' E 007°44'1212.3
2014-Oct-30 03:31N 43°25' E 007°31'1212.2
2014-Oct-30 02:31N 43°17' E 007°18'1212.3
2014-Oct-30 01:33N 43°09' E 007°06'1211.9
2014-Oct-30 00:34N 43°01' E 006°54'1111.5
2014-Oct-29 23:34N 42°54' E 006°42'1211.7
2014-Oct-29 22:34N 42°46' E 006°30'1212.0
2014-Oct-29 21:33N 42°38' E 006°18'1212.3
2014-Oct-29 20:33N 42°29' E 006°06'1312.2
2014-Oct-29 19:29N 42°21' E 005°52'1413.2
2014-Oct-29 18:25N 42°12' E 005°37'1512.9
2014-Oct-29 17:14N 42°02' E 005°22'811.8
2014-Oct-29 16:33N 41°57' E 005°14'1211.9
2014-Oct-29 15:31N 41°49' E 005°01'1715.5
2014-Oct-29 14:26N 41°38' E 004°44'2023.0
2014-Oct-29 13:33N 41°24' E 004°25'2221.9
2014-Oct-29 12:33N 41°10' E 004°02'1916.2
2014-Oct-29 11:24N 40°58' E 003°43'1213.9
2014-Oct-29 10:32N 40°50' E 003°31'1414.3
2014-Oct-29 09:31N 40°40' E 003°18'1414.1
2014-Oct-29 08:33N 40°31' E 003°03'1414.0
2014-Oct-29 07:33N 40°22' E 002°49'1414.0
2014-Oct-29 06:33N 40°13' E 002°35'1413.9
2014-Oct-29 05:33N 40°04' E 002°22'1413.8
2014-Oct-29 04:33N 39°55' E 002°08'1414.0
2014-Oct-29 03:33N 39°46' E 001°54'1614.1
2014-Oct-29 02:24N 39°35' E 001°39'1213.9
2014-Oct-29 01:33N 39°27' E 001°27'13713.7
2014-Oct-28 15:33N 37°35' W 000°14'1413.6
2014-Oct-28 14:33N 37°24' W 000°23'2713.5
2014-Oct-28 12:32N 37°04' W 000°47'22813.4
2014-Oct-27 19:33N 35°59' W 005°19'3514.7
2014-Oct-27 17:12N 35°54' W 006°01'913.8
2014-Oct-27 16:33N 35°54' W 006°12'1513.7
2014-Oct-27 15:29N 35°53' W 006°30'1814.5
2014-Oct-27 14:17N 35°58' W 006°51'1620.1
2014-Oct-27 13:28N 36°03' W 007°10'1415.8
2014-Oct-27 12:33N 36°07' W 007°27'2014.7
2014-Oct-27 11:12N 36°13' W 007°51'813.1
2014-Oct-27 10:33N 36°15' W 008°01'1514.1
2014-Oct-27 09:31N 36°19' W 008°18'1314.0
2014-Oct-27 08:34N 36°23' W 008°34'1414.0
2014-Oct-27 07:34N 36°28' W 008°51'1413.8
2014-Oct-27 06:33N 36°32' W 009°07'1413.5
2014-Oct-27 05:33N 36°38' W 009°22'1414.0
2014-Oct-27 04:33N 36°48' W 009°34'1414.1
2014-Oct-27 03:33N 37°02' W 009°38'1414.2
2014-Oct-27 02:33N 37°16' W 009°41'1414.2
2014-Oct-27 01:33N 37°30' W 009°45'1413.9
2014-Oct-27 00:33N 37°43' W 009°49'1413.9
2014-Oct-26 23:33N 37°57' W 009°53'1414.0
2014-Oct-26 22:33N 38°11' W 009°56'1414.1
2014-Oct-26 21:33N 38°24' W 010°02'1514.0
2014-Oct-26 20:31N 38°38' W 010°05'  
2014-Oct-24 09:33N 50°00' W 002°43'  

Dump ship's entire track history